createdAt,value
2023-03-05T00:00:22.346Z,6.9
2023-03-05T00:05:22.335Z,5.9
2023-03-05T00:10:22.340Z,5.5
2023-03-05T00:15:22.345Z,4.6
2023-03-05T00:20:22.341Z,7.2
2023-03-05T00:25:22.338Z,8.0
2023-03-05T00:30:22.345Z,8.8
2023-03-05T00:35:22.398Z,7.8
2023-03-05T00:40:22.440Z,11.5
2023-03-05T00:45:22.487Z,13.2
2023-03-05T00:50:22.349Z,10.7
2023-03-05T00:55:22.349Z,7.9
2023-03-05T01:00:22.356Z,9.6
2023-03-05T01:05:22.427Z,7.3
2023-03-05T01:10:22.340Z,12.4
2023-03-05T01:15:22.380Z,11.2
2023-03-05T01:20:22.498Z,9.8
2023-03-05T01:25:22.334Z,9.4
2023-03-05T01:30:22.335Z,8.2
2023-03-05T01:35:22.396Z,7.9
2023-03-05T01:40:22.334Z,6.6
2023-03-05T01:45:22.337Z,5.8
2023-03-05T01:50:22.342Z,10.0
2023-03-05T01:55:22.345Z,10.8
2023-03-05T02:00:22.377Z,7.8
2023-03-05T02:05:22.348Z,5.6
2023-03-05T02:10:22.341Z,7.9
2023-03-05T02:15:22.344Z,10.6
2023-03-05T02:20:22.349Z,7.4
2023-03-05T02:25:22.348Z,6.5
2023-03-05T02:30:22.363Z,8.0
2023-03-05T02:35:22.459Z,12.2
2023-03-05T02:40:22.356Z,8.0
2023-03-05T02:45:22.351Z,5.7
2023-03-05T02:50:22.358Z,8.5
2023-03-05T02:55:22.366Z,5.2
2023-03-05T03:00:22.408Z,9.5
2023-03-05T03:05:22.375Z,8.2
2023-03-05T03:10:22.366Z,4.9
2023-03-05T03:15:22.371Z,4.8
2023-03-05T03:20:22.378Z,8.0
2023-03-05T03:25:22.371Z,7.1
2023-03-05T03:30:22.378Z,6.3
2023-03-05T03:35:22.450Z,6.6
2023-03-05T03:40:22.380Z,11.4
2023-03-05T03:45:22.383Z,8.3
2023-03-05T03:50:22.379Z,11.2
2023-03-05T03:55:22.380Z,7.4
2023-03-05T04:00:22.443Z,8.2
2023-03-05T04:05:22.446Z,7.9
2023-03-05T04:10:22.462Z,10.0
2023-03-05T04:15:22.445Z,10.1
2023-03-05T04:20:22.448Z,7.2
2023-03-05T04:25:22.576Z,10.8
2023-03-05T04:30:22.457Z,7.7
2023-03-05T04:35:22.480Z,6.9
2023-03-05T04:40:22.453Z,9.4
2023-03-05T04:45:22.465Z,5.2
2023-03-05T04:50:22.574Z,7.0
2023-03-05T04:55:22.456Z,4.3
2023-03-05T05:00:22.508Z,6.3
2023-03-05T05:05:22.480Z,6.9
2023-03-05T05:10:22.479Z,7.9
2023-03-05T05:15:22.463Z,7.2
2023-03-05T05:20:22.580Z,7.6
2023-03-05T05:25:22.565Z,6.4
2023-03-05T05:30:22.478Z,9.4
2023-03-05T05:35:22.491Z,7.2
2023-03-05T05:40:22.481Z,9.3
2023-03-05T05:45:22.529Z,5.9
2023-03-05T05:50:22.494Z,7.1
2023-03-05T05:55:22.483Z,5.6
2023-03-05T06:00:22.484Z,8.5
2023-03-05T06:05:22.486Z,6.9
2023-03-05T06:10:22.570Z,5.3
2023-03-05T06:15:22.488Z,7.3
2023-03-05T06:20:22.481Z,8.8
2023-03-05T06:25:22.487Z,6.6
2023-03-05T06:30:22.490Z,8.6
2023-03-05T06:35:22.544Z,5.5
2023-03-05T06:40:22.488Z,10.8
2023-03-05T06:45:22.485Z,7.9
2023-03-05T06:50:22.492Z,10.2
2023-03-05T06:55:22.493Z,7.7
2023-03-05T07:00:22.502Z,10.8
2023-03-05T07:05:22.497Z,8.1
2023-03-05T07:10:22.567Z,5.6
2023-03-05T07:15:22.501Z,5.8
2023-03-05T07:20:22.510Z,9.3
2023-03-05T07:25:22.496Z,8.5
2023-03-05T07:30:22.515Z,7.9
2023-03-05T07:35:22.522Z,7.3
2023-03-05T07:40:22.501Z,5.8
2023-03-05T07:45:22.511Z,8.1
2023-03-05T07:50:22.513Z,7.7
2023-03-05T07:55:22.506Z,8.0
2023-03-05T08:00:22.506Z,9.1
2023-03-05T08:05:22.513Z,8.7
2023-03-05T08:10:22.520Z,7.1
2023-03-05T08:15:22.530Z,7.2
2023-03-05T08:20:22.523Z,7.4
2023-03-05T08:25:22.540Z,6.9
2023-03-05T08:30:22.522Z,7.1
2023-03-05T08:35:22.601Z,4.2
2023-03-05T08:40:22.531Z,4.9
2023-03-05T08:45:22.532Z,6.1
2023-03-05T08:50:22.612Z,7.0
2023-03-05T08:55:22.547Z,8.2
2023-03-05T09:00:22.541Z,5.4
2023-03-05T09:05:22.540Z,5.0
2023-03-05T09:10:22.568Z,6.2
2023-03-05T09:15:22.542Z,5.8
2023-03-05T09:20:22.626Z,7.2
2023-03-05T09:25:22.541Z,5.7
2023-03-05T09:30:22.627Z,7.1
2023-03-05T09:35:22.568Z,4.9
2023-03-05T09:40:22.610Z,5.9
2023-03-05T09:45:22.551Z,7.1
2023-03-05T09:50:22.552Z,6.7
2023-03-05T09:55:22.554Z,9.5
2023-03-05T10:00:22.558Z,6.0
2023-03-05T10:05:22.559Z,6.1
2023-03-05T10:10:22.568Z,4.4
2023-03-05T10:15:22.566Z,4.8
2023-03-05T10:20:22.585Z,5.0
2023-03-05T10:25:22.565Z,6.2
2023-03-05T10:30:22.569Z,5.5
2023-03-05T10:35:22.628Z,4.1
2023-03-05T10:40:22.684Z,3.6
2023-03-05T10:45:22.821Z,3.4
2023-03-05T10:50:22.565Z,5.0
2023-03-05T10:55:22.571Z,4.7
2023-03-05T11:00:22.573Z,4.9
2023-03-05T11:05:22.574Z,4.1
2023-03-05T11:10:22.578Z,5.1
2023-03-05T11:15:22.579Z,3.5
2023-03-05T11:20:22.574Z,7.1
2023-03-05T11:25:22.584Z,3.7
2023-03-05T11:30:22.581Z,3.3
2023-03-05T11:35:22.618Z,3.1
2023-03-05T11:40:22.589Z,3.4
2023-03-05T11:45:22.596Z,4.2
2023-03-05T11:50:22.882Z,3.8
2023-03-05T11:55:22.591Z,2.7
2023-03-05T12:00:22.598Z,5.5
2023-03-05T12:05:22.606Z,3.3
2023-03-05T12:10:22.622Z,4.6
2023-03-05T12:15:22.613Z,5.4
2023-03-05T12:20:22.668Z,3.3
2023-03-05T12:25:22.626Z,2.5
2023-03-05T12:30:24.517Z,2.8
2023-03-05T12:35:22.693Z,1.3
2023-03-05T12:40:22.622Z,1.9
2023-03-05T12:45:22.621Z,2.7
2023-03-05T12:50:22.626Z,2.2
2023-03-05T12:55:22.631Z,1.5
2023-03-05T13:00:22.633Z,1.5
2023-03-05T13:05:22.628Z,5.4
2023-03-05T13:10:22.629Z,3.4
2023-03-05T13:15:22.630Z,3.8
2023-03-05T13:20:22.633Z,2.8
2023-03-05T13:25:22.647Z,3.4
2023-03-05T13:30:22.628Z,2.7
2023-03-05T13:35:22.724Z,3.0
2023-03-05T13:40:22.658Z,2.3
2023-03-05T13:45:22.647Z,2.5
2023-03-05T13:50:22.629Z,2.1
2023-03-05T13:55:22.649Z,1.6
2023-03-05T14:00:22.640Z,1.7
2023-03-05T14:05:22.645Z,1.5
2023-03-05T14:10:22.647Z,2.5
2023-03-05T14:15:22.654Z,2.1
2023-03-05T14:20:23.009Z,2.4
2023-03-05T14:25:22.650Z,1.5
2023-03-05T14:30:22.659Z,1.2
2023-03-05T14:35:22.714Z,3.3
2023-03-05T14:40:22.654Z,2.1
2023-03-05T14:45:22.660Z,2.0
2023-03-05T14:50:22.660Z,2.9
2023-03-05T14:55:22.662Z,2.4
2023-03-05T15:00:22.681Z,2.3
2023-03-05T15:05:22.671Z,0.9
2023-03-05T15:10:22.670Z,1.8
2023-03-05T15:15:22.669Z,1.5
2023-03-05T15:20:22.666Z,3.5
2023-03-05T15:25:22.674Z,2.5
2023-03-05T15:30:22.670Z,1.6
2023-03-05T15:35:22.712Z,2.8
2023-03-05T15:40:22.694Z,2.5
2023-03-05T15:45:22.686Z,1.5
2023-03-05T15:50:22.673Z,2.5
2023-03-05T15:55:22.672Z,2.0
2023-03-05T16:00:23.818Z,1.9
2023-03-05T16:05:22.739Z,3.4
2023-03-05T16:10:22.695Z,1.6
2023-03-05T16:15:22.690Z,1.7
2023-03-05T16:20:22.717Z,2.2
2023-03-05T16:25:22.696Z,2.8
2023-03-05T16:30:22.741Z,1.4
2023-03-05T16:35:22.766Z,2.8
2023-03-05T16:40:22.735Z,2.2
2023-03-05T16:45:22.696Z,3.8
2023-03-05T16:50:22.710Z,2.6
2023-03-05T16:55:22.698Z,2.7
2023-03-05T17:00:22.815Z,3.5
2023-03-05T17:05:22.798Z,2.4
2023-03-05T17:10:22.713Z,2.6
2023-03-05T17:15:22.715Z,3.9
2023-03-05T17:20:22.706Z,2.6
2023-03-05T17:25:22.790Z,2.6
2023-03-05T17:30:22.732Z,2.5
2023-03-05T17:35:22.754Z,2.1
2023-03-05T17:40:22.710Z,2.4
2023-03-05T17:45:22.895Z,1.9
2023-03-05T17:50:22.716Z,1.6
2023-03-05T17:55:22.719Z,3.2
2023-03-05T18:00:22.724Z,2.7
2023-03-05T18:05:22.718Z,3.1
2023-03-05T18:10:22.715Z,3.0
2023-03-05T18:20:22.719Z,3.0
2023-03-05T18:25:22.720Z,3.3
2023-03-05T18:30:22.722Z,4.3
2023-03-05T18:35:22.782Z,5.1
2023-03-05T18:40:22.724Z,5.3
2023-03-05T18:45:22.719Z,5.5
2023-03-05T18:50:22.735Z,4.4
2023-03-05T18:55:22.729Z,6.4
2023-03-05T19:00:22.729Z,5.9
2023-03-05T19:05:22.733Z,7.5
2023-03-05T19:10:22.735Z,8.1
2023-03-05T19:15:22.744Z,5.2
2023-03-05T19:20:22.742Z,5.2
2023-03-05T19:25:22.761Z,6.5
2023-03-05T19:30:22.754Z,4.1
2023-03-05T19:35:22.780Z,3.6
2023-03-05T19:40:22.743Z,3.9
2023-03-05T19:45:22.742Z,4.9
2023-03-05T19:50:22.737Z,4.8
2023-03-05T19:55:22.737Z,3.7
2023-03-05T20:00:22.739Z,2.7
2023-03-05T20:05:22.738Z,2.4
2023-03-05T20:10:22.741Z,2.7
2023-03-05T20:15:22.748Z,2.9
2023-03-05T20:20:23.002Z,3.6
2023-03-05T20:25:22.748Z,3.4
2023-03-05T20:30:22.752Z,3.1
2023-03-05T20:35:22.795Z,3.5
2023-03-05T20:40:22.755Z,3.0
2023-03-05T20:45:22.760Z,3.3
2023-03-05T20:50:22.760Z,4.7
2023-03-05T20:55:22.758Z,5.0
2023-03-05T21:00:22.759Z,3.8
2023-03-05T21:05:22.784Z,3.5
2023-03-05T21:10:22.765Z,3.7
2023-03-05T21:15:22.764Z,6.6
2023-03-05T21:20:22.778Z,6.6
2023-03-05T21:25:22.771Z,7.0
2023-03-05T21:30:22.766Z,6.0
2023-03-05T21:35:22.810Z,6.1
2023-03-05T21:40:22.770Z,7.9
2023-03-05T21:45:22.777Z,9.1
2023-03-05T21:50:22.772Z,7.3
2023-03-05T21:55:22.774Z,7.8
2023-03-05T22:00:22.775Z,6.2
2023-03-05T22:05:22.777Z,7.0
2023-03-05T22:10:22.776Z,7.6
2023-03-05T22:15:22.788Z,5.7
2023-03-05T22:20:22.789Z,7.5
2023-03-05T22:25:22.805Z,7.7
2023-03-05T22:30:22.790Z,6.3
2023-03-05T22:35:22.844Z,7.0
2023-03-05T22:40:22.774Z,6.9
2023-03-05T22:45:22.773Z,6.6
2023-03-05T22:50:22.806Z,6.7
2023-03-05T22:55:22.801Z,6.1
2023-03-05T23:00:22.778Z,11.2
2023-03-05T23:05:22.825Z,7.1
2023-03-05T23:10:24.885Z,8.8
2023-03-05T23:15:22.799Z,9.6
2023-03-05T23:20:22.822Z,5.1
2023-03-05T23:25:22.802Z,5.4
2023-03-05T23:30:22.800Z,6.0
2023-03-05T23:35:22.840Z,4.7
2023-03-05T23:40:22.803Z,7.0
2023-03-05T23:45:22.797Z,4.9
2023-03-05T23:50:22.800Z,4.3
2023-03-05T23:55:22.806Z,5.9
